createdAt,value
2018-08-16T00:01:49.296Z,101143.75
2018-08-16T00:04:24.897Z,101142.73
2018-08-16T00:07:00.595Z,101143.53
2018-08-16T00:09:36.292Z,101128.59
2018-08-16T00:12:12.079Z,101129.13
2018-08-16T00:14:47.811Z,101133.77
2018-08-16T00:17:21.506Z,101132.58
2018-08-16T00:19:57.246Z,101124.35
2018-08-16T00:22:32.842Z,101123.85
2018-08-16T00:25:09.435Z,101121.48
2018-08-16T00:27:45.187Z,101120.98
2018-08-16T00:30:24.392Z,101119.45
2018-08-16T00:33:00.187Z,101123.81
2018-08-16T00:35:35.826Z,101121.44
2018-08-16T00:38:12.512Z,101116.08
2018-08-16T00:40:48.184Z,101122.78
2018-08-16T00:43:24.087Z,101121.44
2018-08-16T00:46:00.032Z,101129.33
2018-08-16T00:48:35.800Z,101124.47
2018-08-16T00:51:11.616Z,101119.95
2018-08-16T00:53:45.347Z,101117.42
2018-08-16T00:56:21.283Z,101117.11
2018-08-16T00:58:57.204Z,101117.95
2018-08-16T01:01:33.036Z,101119.38
2018-08-16T01:04:08.840Z,101112.91
2018-08-16T01:06:44.601Z,101121.06
2018-08-16T01:09:20.213Z,101117.33
2018-08-16T01:11:55.803Z,101125.71
2018-08-16T01:14:31.242Z,101119.82
2018-08-16T01:17:07.202Z,101118.29
2018-08-16T01:19:43.105Z,101120.81
2018-08-16T01:22:18.976Z,101118.29
2018-08-16T01:24:54.399Z,101121.78
2018-08-16T01:27:30.192Z,101117.26
2018-08-16T01:30:06.162Z,101114.39
2018-08-16T01:32:42.250Z,101125.11
2018-08-16T01:35:18.185Z,101120.59
2018-08-16T01:37:54.132Z,101113.39
2018-08-16T01:40:30.440Z,101112.89
2018-08-16T01:43:06.313Z,101116.91
2018-08-16T01:45:42.190Z,101110.21
2018-08-16T01:48:18.067Z,101110.52
2018-08-16T01:50:53.838Z,101104.02
2018-08-16T01:53:27.537Z,101105.84
2018-08-16T01:56:04.353Z,101108.53
2018-08-16T01:58:40.438Z,101104.51
2018-08-16T02:01:14.340Z,101107.19
2018-08-16T02:03:50.426Z,101100.98
2018-08-16T02:06:26.271Z,101102.86
2018-08-16T02:09:02.353Z,101104.20
2018-08-16T02:11:38.183Z,101101.52
2018-08-16T02:14:14.012Z,101110.06
2018-08-16T02:16:50.605Z,101100.98
2018-08-16T02:19:26.288Z,101106.19
2018-08-16T02:22:02.185Z,101106.00
2018-08-16T02:24:38.070Z,101105.81
2018-08-16T02:27:13.760Z,101103.78
2018-08-16T02:29:49.483Z,101104.59
2018-08-16T02:32:25.121Z,101104.74
2018-08-16T02:35:01.122Z,101107.91
2018-08-16T02:37:36.884Z,101112.89
2018-08-16T02:40:11.780Z,101117.77
2018-08-16T02:42:47.659Z,101119.75
2018-08-16T02:45:23.489Z,101117.41
2018-08-16T02:47:59.288Z,101125.77
2018-08-16T02:50:35.925Z,101115.58
2018-08-16T02:53:12.065Z,101123.42
2018-08-16T02:55:47.874Z,101129.30
2018-08-16T02:58:23.696Z,101129.48
2018-08-16T03:01:00.194Z,101130.63
2018-08-16T03:03:36.216Z,101129.79
2018-08-16T03:06:12.585Z,101134.00
2018-08-16T03:08:48.561Z,101143.20
2018-08-16T03:11:24.650Z,101144.73
2018-08-16T03:14:00.714Z,101151.94
2018-08-16T03:16:37.109Z,101144.39
2018-08-16T03:19:13.569Z,101148.09
2018-08-16T03:21:49.481Z,101146.27
2018-08-16T03:24:25.847Z,101152.13
2018-08-16T03:27:02.197Z,101152.63
2018-08-16T03:29:38.457Z,101150.44
2018-08-16T03:32:14.676Z,101152.28
2018-08-16T03:34:51.802Z,101151.97
2018-08-16T03:37:27.967Z,101155.99
2018-08-16T03:40:04.236Z,101158.33
2018-08-16T03:42:41.402Z,101156.98
2018-08-16T03:45:17.575Z,101157.83
2018-08-16T03:47:51.666Z,101156.98
2018-08-16T03:50:27.970Z,101155.16
2018-08-16T03:53:04.278Z,101160.02
2018-08-16T03:55:41.392Z,101166.03
2018-08-16T03:58:17.612Z,101165.50
2018-08-16T04:00:53.969Z,101171.85
2018-08-16T04:03:31.275Z,101171.97
2018-08-16T04:06:07.560Z,101176.69
2018-08-16T04:08:44.662Z,101180.33
2018-08-16T04:11:20.882Z,101183.01
2018-08-16T04:14:01.589Z,101188.03
2018-08-16T04:16:37.653Z,101186.34
2018-08-16T04:19:14.692Z,101189.17
2018-08-16T04:21:51.086Z,101194.73
2018-08-16T04:24:28.215Z,101192.05
2018-08-16T04:27:05.193Z,101192.20
2018-08-16T04:29:41.590Z,101192.73
2018-08-16T04:32:17.819Z,101194.73
2018-08-16T04:34:53.988Z,101196.39
2018-08-16T04:37:30.197Z,101201.09
2018-08-16T04:40:06.365Z,101202.59
2018-08-16T04:42:42.608Z,101205.42
2018-08-16T04:45:18.596Z,101209.59
2018-08-16T04:47:54.718Z,101210.25
2018-08-16T04:50:30.602Z,101214.62
2018-08-16T04:53:07.825Z,101219.45
2018-08-16T04:55:43.831Z,101216.08
2018-08-16T04:58:20.964Z,101222.12
2018-08-16T05:00:58.616Z,101226.97
2018-08-16T05:03:36.082Z,101236.20
2018-08-16T05:06:12.626Z,101235.16
2018-08-16T05:08:48.692Z,101235.51
2018-08-16T05:11:25.617Z,101242.22
2018-08-16T05:14:01.925Z,101235.81
2018-08-16T05:16:39.286Z,101244.52
2018-08-16T05:19:15.725Z,101238.84
2018-08-16T05:21:52.347Z,101242.18
2018-08-16T05:24:29.541Z,101250.38
2018-08-16T05:27:07.344Z,101248.35
2018-08-16T05:29:43.633Z,101246.82
2018-08-16T05:32:20.433Z,101250.00
2018-08-16T05:34:56.723Z,101249.47
2018-08-16T05:37:32.749Z,101252.80
2018-08-16T05:40:08.059Z,101256.48
2018-08-16T05:42:45.864Z,101250.27
2018-08-16T05:45:24.130Z,101256.63
2018-08-16T05:48:01.450Z,101251.91
2018-08-16T05:50:38.887Z,101250.56
2018-08-16T05:53:16.710Z,101252.06
2018-08-16T05:55:53.965Z,101249.69
2018-08-16T05:58:31.291Z,101250.34
2018-08-16T06:01:09.079Z,101249.34
2018-08-16T06:03:45.876Z,101252.36
2018-08-16T06:06:23.195Z,101251.33
2018-08-16T06:09:01.009Z,101255.70
2018-08-16T06:11:38.135Z,101250.33
2018-08-16T06:14:15.634Z,101257.69
2018-08-16T06:16:53.278Z,101257.50
2018-08-16T06:19:30.885Z,101260.87
2018-08-16T06:22:08.776Z,101261.91
2018-08-16T06:24:46.699Z,101263.34
2018-08-16T06:27:23.753Z,101268.59
2018-08-16T06:30:01.019Z,101265.14
2018-08-16T06:32:38.026Z,101273.92
2018-08-16T06:35:15.643Z,101280.47
2018-08-16T06:37:53.154Z,101279.16
2018-08-16T06:40:30.181Z,101280.20
2018-08-16T06:43:07.709Z,101280.73
2018-08-16T06:45:45.411Z,101287.63
2018-08-16T06:48:22.526Z,101291.11
2018-08-16T06:50:59.952Z,101287.28
2018-08-16T06:53:37.265Z,101296.14
2018-08-16T06:56:14.160Z,101292.42
2018-08-16T06:58:51.466Z,101299.81
2018-08-16T07:01:28.794Z,101308.02
2018-08-16T07:04:06.461Z,101302.66
2018-08-16T07:06:42.945Z,101298.63
2018-08-16T07:09:19.731Z,101307.18
2018-08-16T07:11:54.712Z,101304.19
2018-08-16T07:14:31.878Z,101311.89
2018-08-16T07:17:08.948Z,101313.77
2018-08-16T07:19:46.254Z,101314.58
2018-08-16T07:22:22.924Z,101312.08
2018-08-16T07:24:57.963Z,101305.72
2018-08-16T07:27:35.532Z,101305.38
2018-08-16T07:30:13.554Z,101298.16
2018-08-16T07:32:50.456Z,101305.06
2018-08-16T07:35:27.525Z,101309.39
2018-08-16T07:38:04.787Z,101311.77
2018-08-16T07:40:42.000Z,101311.42
2018-08-16T07:43:17.450Z,101309.23
2018-08-16T07:45:55.139Z,101304.03
2018-08-16T07:48:33.141Z,101304.53
2018-08-16T07:51:10.379Z,101311.73
2018-08-16T07:53:47.420Z,101308.55
2018-08-16T07:56:24.370Z,101304.71
2018-08-16T07:59:01.728Z,101308.73
2018-08-16T08:01:38.934Z,101310.08
2018-08-16T08:04:16.548Z,101309.23
2018-08-16T08:06:53.446Z,101309.73
2018-08-16T08:09:30.681Z,101315.28
2018-08-16T08:12:07.759Z,101313.59
2018-08-16T08:14:45.308Z,101316.81
2018-08-16T08:17:22.550Z,101314.13
2018-08-16T08:19:59.981Z,101319.99
2018-08-16T08:22:36.962Z,101319.99
2018-08-16T08:25:15.595Z,101319.65
2018-08-16T08:27:53.231Z,101322.33
2018-08-16T08:30:30.569Z,101328.54
2018-08-16T08:33:07.577Z,101327.53
2018-08-16T08:35:44.103Z,101321.86
2018-08-16T08:38:22.395Z,101318.52
2018-08-16T08:40:58.980Z,101321.70
2018-08-16T08:43:49.168Z,101334.27
2018-08-16T08:46:26.407Z,101331.93
2018-08-16T08:49:03.275Z,101329.25
2018-08-16T08:51:39.766Z,101330.59
2018-08-16T08:54:36.896Z,101324.06
2018-08-16T08:57:27.356Z,101320.36
2018-08-16T09:00:04.761Z,101322.73
2018-08-16T09:02:41.900Z,101319.05
2018-08-16T09:05:18.997Z,101322.56
2018-08-16T09:07:56.585Z,101322.88
2018-08-16T09:11:15.581Z,101324.72
2018-08-16T09:14:09.037Z,101317.20
2018-08-16T09:16:46.577Z,101326.74
2018-08-16T09:19:23.992Z,101325.25
2018-08-16T09:22:01.594Z,101321.22
2018-08-16T09:24:38.460Z,101326.58
2018-08-16T09:27:16.021Z,101321.75
2018-08-16T09:30:22.228Z,101325.77
2018-08-16T09:33:12.467Z,101324.93
2018-08-16T09:35:49.587Z,101332.48
2018-08-16T09:38:26.609Z,101329.95
2018-08-16T09:41:04.068Z,101332.98
2018-08-16T09:43:41.292Z,101334.81
2018-08-16T09:48:04.926Z,101339.02
2018-08-16T09:50:41.583Z,101343.89
2018-08-16T09:53:16.327Z,101337.70
2018-08-16T09:55:53.632Z,101349.92
2018-08-16T09:58:31.042Z,101339.19
2018-08-16T10:01:14.126Z,101345.90
2018-08-16T10:03:51.982Z,101343.75
2018-08-16T10:06:29.358Z,101347.42
2018-08-16T10:09:07.387Z,101351.13
2018-08-16T10:11:45.380Z,101347.42
2018-08-16T10:14:22.823Z,101350.78
2018-08-16T10:17:00.076Z,101349.94
2018-08-16T10:19:37.368Z,101352.13
2018-08-16T10:22:14.402Z,101356.14
2018-08-16T10:24:51.713Z,101355.30
2018-08-16T10:27:28.612Z,101359.33
2018-08-16T10:30:05.805Z,101357.14
2018-08-16T10:32:42.372Z,101362.85
2018-08-16T10:35:18.930Z,101358.48
2018-08-16T10:37:55.949Z,101360.17
2018-08-16T10:40:32.805Z,101351.78
2018-08-16T10:43:09.784Z,101353.65
2018-08-16T10:45:47.353Z,101353.12
2018-08-16T10:48:24.345Z,101348.29
2018-08-16T10:51:01.357Z,101350.44
2018-08-16T10:53:38.047Z,101346.10
2018-08-16T10:56:15.351Z,101347.09
2018-08-16T10:58:53.002Z,101347.09
2018-08-16T11:01:27.853Z,101344.11
2018-08-16T11:04:05.411Z,101348.97
2018-08-16T11:06:42.343Z,101344.11
2018-08-16T11:09:19.094Z,101348.63
2018-08-16T11:11:54.383Z,101347.78
2018-08-16T11:14:31.799Z,101346.94
2018-08-16T11:17:09.276Z,101350.45
2018-08-16T11:19:46.633Z,101353.82
2018-08-16T11:22:23.356Z,101361.37
2018-08-16T11:25:01.130Z,101365.39
2018-08-16T11:27:38.284Z,101360.21
2018-08-16T11:31:21.624Z,101356.69
2018-08-16T11:33:58.403Z,101357.19
2018-08-16T11:36:35.487Z,101360.36
2018-08-16T11:39:13.103Z,101355.84
2018-08-16T11:41:50.627Z,101354.02
2018-08-16T11:44:27.743Z,101356.36
2018-08-16T11:47:04.830Z,101350.68
2018-08-16T11:49:41.679Z,101359.88
2018-08-16T11:52:16.542Z,101364.89
2018-08-16T11:54:54.847Z,101359.03
2018-08-16T11:57:31.484Z,101353.18
2018-08-16T12:00:09.060Z,101357.20
2018-08-16T12:02:45.631Z,101359.53
2018-08-16T12:05:22.865Z,101359.53
2018-08-16T12:07:59.433Z,101354.19
2018-08-16T12:10:37.050Z,101355.52
2018-08-16T12:13:13.643Z,101361.41
2018-08-16T12:15:50.294Z,101363.73
2018-08-16T12:18:27.848Z,101362.39
2018-08-16T12:21:04.730Z,101371.46
2018-08-16T12:23:41.867Z,101367.09
2018-08-16T12:26:19.299Z,101373.30
2018-08-16T12:28:56.525Z,101369.43
2018-08-16T12:31:33.905Z,101375.47
2018-08-16T12:34:10.638Z,101374.66
2018-08-16T12:36:47.652Z,101371.45
2018-08-16T12:39:24.703Z,101373.13
2018-08-16T12:42:01.149Z,101370.45
2018-08-16T12:44:38.170Z,101371.98
2018-08-16T12:47:14.784Z,101370.11
2018-08-16T12:49:51.838Z,101374.31
2018-08-16T12:52:29.871Z,101382.84
2018-08-16T12:55:07.332Z,101379.33
2018-08-16T12:57:44.337Z,101372.63
2018-08-16T13:00:21.922Z,101375.13
2018-08-16T13:02:58.980Z,101380.81
2018-08-16T13:05:36.362Z,101378.31
2018-08-16T13:08:14.347Z,101388.01
2018-08-16T13:10:50.891Z,101383.67
2018-08-16T13:13:28.410Z,101383.17
2018-08-16T13:16:05.701Z,101385.33
2018-08-16T13:18:42.327Z,101378.81
2018-08-16T13:21:19.651Z,101380.64
2018-08-16T13:23:57.072Z,101384.66
2018-08-16T13:26:34.543Z,101383.33
2018-08-16T13:29:11.879Z,101389.21
2018-08-16T13:31:48.464Z,101390.39
2018-08-16T13:34:25.306Z,101396.06
2018-08-16T13:37:02.596Z,101410.66
2018-08-16T13:39:40.029Z,101413.83
2018-08-16T13:42:17.573Z,101426.38
2018-08-16T13:44:54.577Z,101437.10
2018-08-16T13:47:31.305Z,101439.78
2018-08-16T13:50:07.931Z,101444.30
2018-08-16T13:52:43.354Z,101443.98
2018-08-16T13:55:20.707Z,101449.34
2018-08-16T13:57:57.918Z,101453.52
2018-08-16T14:00:35.074Z,101458.06
2018-08-16T14:03:11.531Z,101457.70
2018-08-16T14:05:48.817Z,101457.70
2018-08-16T14:08:25.827Z,101460.88
2018-08-16T14:11:02.500Z,101464.91
2018-08-16T14:13:39.745Z,101471.60
2018-08-16T14:16:17.073Z,101476.15
2018-08-16T14:18:54.365Z,101480.81
2018-08-16T14:21:31.674Z,101476.47
2018-08-16T14:24:08.457Z,101481.66
2018-08-16T14:26:45.782Z,101487.69
2018-08-16T14:29:23.828Z,101490.53
2018-08-16T14:32:01.452Z,101489.20
2018-08-16T14:34:38.533Z,101494.56
2018-08-16T14:37:15.091Z,101502.95
2018-08-16T14:39:52.307Z,101496.89
2018-08-16T14:42:30.243Z,101499.56
2018-08-16T14:45:07.300Z,101496.22
2018-08-16T14:47:44.869Z,101502.92
2018-08-16T14:50:22.499Z,101504.93
2018-08-16T14:52:59.840Z,101508.95
2018-08-16T14:55:36.790Z,101513.47
2018-08-16T14:58:14.901Z,101518.02
2018-08-16T15:00:51.428Z,101523.37
2018-08-16T15:03:28.813Z,101530.39
2018-08-16T15:06:05.779Z,101524.70
2018-08-16T15:08:42.608Z,101530.73
2018-08-16T15:11:20.430Z,101530.24
2018-08-16T15:13:57.283Z,101535.60
2018-08-16T15:16:35.236Z,101532.92
2018-08-16T15:19:12.014Z,101543.11
2018-08-16T15:21:49.084Z,101547.13
2018-08-16T15:24:26.871Z,101548.47
2018-08-16T15:27:04.000Z,101549.67
2018-08-16T15:30:47.302Z,101542.45
2018-08-16T15:33:23.848Z,101539.63
2018-08-16T15:36:01.143Z,101541.63
2018-08-16T15:38:38.346Z,101549.98
2018-08-16T15:41:16.229Z,101560.39
2018-08-16T15:43:52.889Z,101555.84
2018-08-16T15:46:30.388Z,101543.46
2018-08-16T15:49:08.768Z,101548.64
2018-08-16T15:51:45.879Z,101555.87
2018-08-16T15:54:23.305Z,101558.55
2018-08-16T15:57:00.614Z,101559.54
2018-08-16T15:59:38.236Z,101551.84
2018-08-16T16:02:15.347Z,101549.48
2018-08-16T16:04:52.342Z,101556.19
2018-08-16T16:07:29.763Z,101559.22
2018-08-16T16:10:07.291Z,101563.45
2018-08-16T16:12:43.882Z,101565.59
2018-08-16T16:15:21.237Z,101565.25
2018-08-16T16:17:58.426Z,101574.16
2018-08-16T16:20:35.582Z,101568.80
2018-08-16T16:23:13.524Z,101567.29
2018-08-16T16:25:51.119Z,101568.63
2018-08-16T16:28:28.411Z,101566.80
2018-08-16T16:31:05.728Z,101558.75
2018-08-16T16:33:43.352Z,101557.70
2018-08-16T16:36:21.145Z,101555.87
2018-08-16T16:38:58.437Z,101563.27
2018-08-16T16:41:35.592Z,101567.28
2018-08-16T16:44:13.473Z,101560.58
2018-08-16T16:46:50.320Z,101568.98
2018-08-16T16:49:27.521Z,101566.30
2018-08-16T16:52:04.859Z,101575.33
2018-08-16T16:54:43.117Z,101573.00
2018-08-16T16:57:20.473Z,101571.16
2018-08-16T16:59:58.490Z,101577.34
2018-08-16T17:02:35.532Z,101573.84
2018-08-16T17:05:12.631Z,101582.70
2018-08-16T17:07:50.116Z,101584.03
2018-08-16T17:10:27.663Z,101579.03
2018-08-16T17:13:05.139Z,101579.34
2018-08-16T17:15:42.423Z,101577.69
2018-08-16T17:18:19.379Z,101577.51
2018-08-16T17:20:57.157Z,101577.19
2018-08-16T17:23:34.571Z,101578.00
2018-08-16T17:26:11.863Z,101578.36
2018-08-16T17:28:49.418Z,101577.19
2018-08-16T17:31:26.264Z,101585.05
2018-08-16T17:34:02.879Z,101581.53
2018-08-16T17:36:40.413Z,101584.88
2018-08-16T17:39:18.171Z,101584.38
2018-08-16T17:41:55.067Z,101584.73
2018-08-16T17:44:32.128Z,101576.52
2018-08-16T17:47:10.383Z,101579.87
2018-08-16T17:49:47.374Z,101581.20
2018-08-16T17:52:23.627Z,101581.03
2018-08-16T17:55:01.100Z,101574.83
2018-08-16T17:57:38.138Z,101578.35
2018-08-16T18:00:15.562Z,101577.01
2018-08-16T18:02:53.170Z,101575.17
2018-08-16T18:05:30.437Z,101575.17
2018-08-16T18:08:07.691Z,101572.31
2018-08-16T18:10:46.366Z,101572.66
2018-08-16T18:13:23.868Z,101583.89
2018-08-16T18:16:01.393Z,101585.40
2018-08-16T18:18:38.500Z,101574.33
2018-08-16T18:21:16.344Z,101577.36
2018-08-16T18:23:53.926Z,101570.97
2018-08-16T18:26:31.176Z,101564.27
2018-08-16T18:29:08.201Z,101565.11
2018-08-16T18:31:45.856Z,101560.59
2018-08-16T18:34:23.371Z,101563.28
2018-08-16T18:37:00.662Z,101555.23
2018-08-16T18:39:37.996Z,101562.25
2018-08-16T18:42:15.291Z,101558.76
2018-08-16T18:44:53.327Z,101560.91
2018-08-16T18:47:30.450Z,101564.44
2018-08-16T18:50:07.584Z,101555.55
2018-08-16T18:52:45.395Z,101554.55
2018-08-16T18:55:22.938Z,101559.92
2018-08-16T18:58:00.355Z,101553.22
2018-08-16T19:00:37.582Z,101558.58
2018-08-16T19:03:15.102Z,101554.06
2018-08-16T19:05:52.050Z,101551.20
2018-08-16T19:08:29.574Z,101551.20
2018-08-16T19:11:06.808Z,101550.21
2018-08-16T19:13:43.649Z,101543.83
2018-08-16T19:16:21.151Z,101537.97
2018-08-16T19:18:58.386Z,101534.26
2018-08-16T19:21:36.168Z,101525.73
2018-08-16T19:24:13.090Z,101539.47
2018-08-16T19:26:50.585Z,101535.95
2018-08-16T19:29:27.959Z,101533.93
2018-08-16T19:32:06.195Z,101527.72
2018-08-16T19:34:43.418Z,101529.06
2018-08-16T19:37:20.314Z,101529.41
2018-08-16T19:39:57.092Z,101525.57
2018-08-16T19:42:34.685Z,101524.37
2018-08-16T19:45:11.650Z,101517.17
2018-08-16T19:47:49.200Z,101515.83
2018-08-16T19:50:26.218Z,101515.33
2018-08-16T19:53:03.138Z,101516.67
2018-08-16T19:55:40.429Z,101518.33
2018-08-16T19:58:17.513Z,101513.31
2018-08-16T20:00:54.400Z,101506.26
2018-08-16T20:03:32.218Z,101510.13
2018-08-16T20:06:09.653Z,101510.63
2018-08-16T20:08:47.536Z,101512.31
2018-08-16T20:11:23.923Z,101511.30
2018-08-16T20:14:01.708Z,101499.22
2018-08-16T20:16:39.215Z,101500.07
2018-08-16T20:19:15.966Z,101498.90
2018-08-16T20:21:53.235Z,101493.53
2018-08-16T20:24:30.209Z,101486.33
2018-08-16T20:27:07.570Z,101483.12
2018-08-16T20:29:45.048Z,101481.28
2018-08-16T20:32:22.443Z,101483.78
2018-08-16T20:34:59.893Z,101486.81
2018-08-16T20:37:37.714Z,101486.81
2018-08-16T20:40:15.405Z,101487.13
2018-08-16T20:42:52.623Z,101486.81
2018-08-16T20:45:30.423Z,101484.45
2018-08-16T20:48:07.204Z,101480.77
2018-08-16T20:50:45.574Z,101482.11
2018-08-16T20:53:22.654Z,101481.11
2018-08-16T20:56:00.207Z,101477.91
2018-08-16T20:58:37.215Z,101474.23
2018-08-16T21:01:14.127Z,101479.76
2018-08-16T21:03:50.992Z,101475.20
2018-08-16T21:06:27.351Z,101480.07
2018-08-16T21:09:04.226Z,101469.69
2018-08-16T21:11:42.211Z,101467.32
2018-08-16T21:14:19.655Z,101478.40
2018-08-16T21:16:57.082Z,101475.22
2018-08-16T21:19:35.222Z,101470.70
2018-08-16T21:22:11.878Z,101473.38
2018-08-16T21:24:49.384Z,101468.02
2018-08-16T21:27:26.232Z,101471.54
2018-08-16T21:30:03.355Z,101466.52
2018-08-16T21:32:40.479Z,101474.39
2018-08-16T21:35:18.139Z,101470.36
2018-08-16T21:37:55.573Z,101469.02
2018-08-16T21:40:32.265Z,101472.05
2018-08-16T21:43:09.598Z,101470.71
2018-08-16T21:45:46.889Z,101469.68
2018-08-16T21:48:23.264Z,101470.53
2018-08-16T21:51:00.900Z,101466.00
2018-08-16T21:53:37.834Z,101472.53
2018-08-16T21:56:15.013Z,101472.03
2018-08-16T21:58:52.237Z,101477.71
2018-08-16T22:01:28.463Z,101475.88
2018-08-16T22:04:06.599Z,101480.39
2018-08-16T22:06:56.820Z,101483.73
2018-08-16T22:09:33.639Z,101476.53
2018-08-16T22:12:10.603Z,101484.93
2018-08-16T22:14:47.371Z,101483.24
2018-08-16T22:17:24.282Z,101480.56
2018-08-16T22:20:01.470Z,101477.37
2018-08-16T22:22:38.367Z,101479.03
2018-08-16T22:25:15.446Z,101475.54
2018-08-16T22:27:52.495Z,101479.56
2018-08-16T22:30:29.717Z,101476.70
2018-08-16T22:33:07.129Z,101474.86
2018-08-16T22:35:43.840Z,101474.86
2018-08-16T22:38:20.905Z,101481.06
2018-08-16T22:40:58.455Z,101467.13
2018-08-16T22:43:34.280Z,101467.65
2018-08-16T22:46:10.124Z,101466.31
2018-08-16T22:48:46.153Z,101466.63
2018-08-16T22:51:22.172Z,101465.28
2018-08-16T22:53:58.176Z,101456.73
2018-08-16T22:56:34.228Z,101459.60
2018-08-16T22:59:10.118Z,101451.86
2018-08-16T23:01:46.157Z,101453.02
2018-08-16T23:04:22.023Z,101446.00
2018-08-16T23:06:58.176Z,101449.84
2018-08-16T23:09:34.067Z,101451.03
2018-08-16T23:12:10.067Z,101447.81
2018-08-16T23:14:46.266Z,101449.69
2018-08-16T23:17:22.056Z,101453.03
2018-08-16T23:19:58.111Z,101453.34
2018-08-16T23:22:34.109Z,101450.66
2018-08-16T23:25:10.696Z,101451.31
2018-08-16T23:27:46.627Z,101450.48
2018-08-16T23:30:20.408Z,101450.82
2018-08-16T23:32:56.283Z,101454.84
2018-08-16T23:35:32.159Z,101460.87
2018-08-16T23:38:08.251Z,101459.03
2018-08-16T23:40:43.804Z,101451.48
2018-08-16T23:43:20.283Z,101454.82
2018-08-16T23:45:56.238Z,101452.98
2018-08-16T23:48:35.139Z,101447.61
2018-08-16T23:51:11.116Z,101451.80
2018-08-16T23:53:47.257Z,101453.98
2018-08-16T23:56:23.281Z,101449.42
2018-08-16T23:58:59.284Z,101452.95
